Friendswood, TX

1:37 AM CDT on July 01, 2015 (GMT -0500)
Clover | | Change Station
CLOSE
Current Station
Airport
Location: Houston Clover,
Elevation: 43 ft
Nearby Weather Stations

Elev 43 ft 29.52 °N, 95.24 °W | Updated 44 minutes ago

Partly Cloudy
Partly Cloudy
74 °F
Feels Like 74 °F
N
0
Wind Variable Wind from North

Today
High -- | Low -- °F
--% Chance of Precip.
Yesterday
High -- | Low -- °F
Precip. -- in
6:24 AM 8:25 PM
Waxing Gibbous, 99% visible
Pressure 30.06 in
Visibility 10.0 miles
Clouds Clear
Dew Point 71 °F
Humidity 91%
Rainfall 0.00 in
Snow Depth Not available.
UV 0 out of 12
Pollen 3.10 out of 12
Air Quality Not available.
Flu Activity Not available.
METAR KLVJ 010553Z AUTO 00000KT 10SM CLR 23/22 A3006 RMK AO2 SLP179 60009 T02330217 10239 20222 403280222 50012

More Conditions Fewer Conditions

Pressure 30.06 in
Visibility 10.0 miles
Clouds Clear
Dew Point 71 °F
Humidity 91%
Rainfall 0.00 in
Snow Depth Not available.
UV 0 out of 12
Pollen 3.10 out of 12
Air Quality Not available.
Flu Activity Not available.
METAR KLVJ 010553Z AUTO 00000KT 10SM CLR 23/22 A3006 RMK AO2 SLP179 60009 T02330217 10239 20222 403280222 50012

More Conditions Fewer Conditions

10-Day Weather Forecast

×

Almanac

Astronomy

Jul. 01, 2015 Rise Set
Actual Time
Civil Twilight
Nautical Twilight
Astronomical Twilight
Moon
Length of Visible Light
Length of Day
Tomorrow will be .
, % of the Moon is Illuminated

Today's Extremes

State Highs State Lows

Community

WunderPhotos

Upload Photos

1,834,158 photos uploaded!

WunderBlogs® & News

Nearby

Air Quality

  Air Quality AQ Index Pollutant
Not available.

Snow Depth

Station Depth Elevation

Earthquake Activity

City Distance Mag. Time & Date
Minimum magnitude displayed is 2.5.

Coastal Water Temperatures

Place Temperature

Stations

Nearby Weather Stations

Station Location Temp. Windchill Dew Point Humidity Wind Precip. Elev Updated Type